Time;durP1;ratioP1;P1;durP2;ratioP2;P2;SDS_P1;SDS_P2;PMS_P1;PMS_P2;Temp;Humidity;BMP_temperature;BMP_pressure;BME280_temperature;BME280_humidity;BME280_pressure;Samples;Min_cycle;Max_cycle;Signal;HPM_P1;HPM_P2
2021/09/01 00:04:52;;;;;;;14.15;6.18;;;;;;;14.66;74.76;101501.00;8606508;34;20476;-71
2021/09/01 00:09:55;;;;;;;16.77;6.50;;;;;;;14.61;74.57;101495.94;8607886;34;20260;-73
2021/09/01 00:14:58;;;;;;;13.15;5.70;;;;;;;14.74;74.00;101493.13;8606257;34;20272;-69
2021/09/01 00:20:06;;;;;;;13.55;6.00;;;;;;;14.80;74.02;101508.84;8606856;34;25146;-71
2021/09/01 00:25:11;;;;;;;9.50;5.05;;;;;;;14.73;74.07;101513.91;8606859;34;20184;-70
2021/09/01 00:30:14;;;;;;;14.93;5.97;;;;;;;14.72;74.37;101506.75;8582744;34;20185;-72
2021/09/01 00:35:19;;;;;;;12.55;6.38;;;;;;;14.73;74.28;101513.03;8605404;34;20224;-72
2021/09/01 00:40:22;;;;;;;15.80;5.88;;;;;;;14.71;74.52;101506.91;8605549;34;20243;-72
2021/09/01 00:45:25;;;;;;;15.00;5.07;;;;;;;14.75;73.93;101492.13;8604237;34;20288;-72
2021/09/01 00:50:29;;;;;;;15.15;6.38;;;;;;;14.77;73.99;101495.56;8604491;34;20189;-72
2021/09/01 00:55:33;;;;;;;12.77;5.70;;;;;;;14.71;73.89;101490.66;8605463;34;20154;-72
2021/09/01 01:00:43;;;;;;;16.90;6.93;;;;;;;14.66;73.83;101498.28;8605281;34;20700;-71
2021/09/01 01:05:47;;;;;;;13.18;5.70;;;;;;;14.66;73.52;101499.16;8602734;34;20276;-72
2021/09/01 01:10:50;;;;;;;16.48;6.20;;;;;;;14.50;74.39;101499.50;8604025;34;20678;-72
2021/09/01 01:15:54;;;;;;;9.10;5.32;;;;;;;14.48;74.79;101496.09;8603249;34;20200;-71
2021/09/01 01:20:59;;;;;;;14.70;5.88;;;;;;;14.34;74.77;101491.75;8603741;34;20212;-71
2021/09/01 01:26:03;;;;;;;14.10;6.80;;;;;;;14.28;75.00;101494.91;8603461;34;20246;-71
2021/09/01 01:31:06;;;;;;;15.60;6.70;;;;;;;14.21;75.92;101498.25;8603321;34;20196;-71
2021/09/01 01:36:09;;;;;;;12.13;5.65;;;;;;;14.24;75.85;101504.28;8603045;34;20156;-71
2021/09/01 01:41:14;;;;;;;13.85;5.60;;;;;;;14.31;75.25;101505.47;8602831;34;20162;-71
2021/09/01 01:46:17;;;;;;;11.38;5.55;;;;;;;14.39;74.73;101507.63;8602332;34;20177;-71
2021/09/01 01:51:20;;;;;;;12.43;5.50;;;;;;;14.42;74.60;101520.03;8603001;34;20189;-71
2021/09/01 01:56:24;;;;;;;11.25;5.60;;;;;;;14.44;74.64;101512.66;8602148;34;20573;-71
2021/09/01 02:01:27;;;;;;;11.48;5.75;;;;;;;14.32;73.16;101514.47;8602609;34;20200;-71
2021/09/01 02:06:31;;;;;;;12.63;6.43;;;;;;;14.11;74.70;101515.16;8602952;34;20213;-71
2021/09/01 02:11:35;;;;;;;12.30;6.18;;;;;;;14.26;74.62;101509.53;8602449;34;20279;-71
2021/09/01 02:16:38;;;;;;;12.27;6.47;;;;;;;14.45;74.17;101507.13;8601711;34;22006;-71
2021/09/01 02:21:41;;;;;;;10.40;5.85;;;;;;;14.48;73.36;101516.84;8602798;34;20730;-71
2021/09/01 02:26:46;;;;;;;15.15;6.30;;;;;;;14.38;73.63;101517.56;8602097;34;20153;-71
2021/09/01 02:31:49;;;;;;;11.38;5.45;;;;;;;14.31;74.15;101516.28;8602221;34;20229;-71
2021/09/01 02:36:52;;;;;;;12.73;6.72;;;;;;;14.33;74.11;101516.19;8601102;34;20185;-71
2021/09/01 02:41:56;;;;;;;14.45;5.90;;;;;;;14.24;74.34;101514.22;8577629;34;20187;-71
2021/09/01 02:46:59;;;;;;;10.20;5.60;;;;;;;14.10;74.93;101509.91;8601724;34;20208;-71
2021/09/01 02:52:03;;;;;;;10.95;5.38;;;;;;;14.23;74.48;101512.47;8601378;34;20231;-71
2021/09/01 02:57:08;;;;;;;12.02;5.75;;;;;;;14.23;74.33;101517.88;8600582;34;20751;-71
2021/09/01 03:02:11;;;;;;;12.00;5.18;;;;;;;14.38;74.41;101522.09;8601040;34;20726;-71
2021/09/01 03:07:14;;;;;;;13.38;6.15;;;;;;;14.50;74.01;101507.63;8600867;34;20356;-71
2021/09/01 03:12:19;;;;;;;12.18;5.40;;;;;;;14.41;74.24;101510.22;8601431;34;20423;-71
2021/09/01 03:17:22;;;;;;;11.18;5.78;;;;;;;14.36;74.23;101510.53;8600493;34;20222;-71
2021/09/01 03:22:25;;;;;;;7.88;4.88;;;;;;;14.31;74.79;101505.47;8600986;34;20280;-71
2021/09/01 03:27:29;;;;;;;10.73;5.40;;;;;;;14.20;74.95;101521.69;8602182;34;20191;-71
2021/09/01 03:32:32;;;;;;;10.60;5.53;;;;;;;14.26;75.38;101526.63;8606644;34;21175;-70
2021/09/01 03:37:36;;;;;;;8.23;5.22;;;;;;;14.27;75.10;101525.66;8605887;34;20222;-72
2021/09/01 03:42:41;;;;;;;12.77;5.18;;;;;;;14.30;74.42;101519.13;8581735;34;20454;-71
2021/09/01 03:47:44;;;;;;;12.02;4.93;;;;;;;14.36;74.66;101515.94;8604932;34;20751;-72
2021/09/01 03:52:47;;;;;;;10.13;5.30;;;;;;;14.34;74.77;101517.91;8605315;34;20614;-71
2021/09/01 03:57:51;;;;;;;14.57;6.18;;;;;;;14.13;74.35;101524.03;8604739;34;20223;-71
2021/09/01 04:02:54;;;;;;;10.10;5.00;;;;;;;13.98;75.51;101522.50;8605514;34;20320;-72
2021/09/01 04:07:57;;;;;;;12.32;5.45;;;;;;;14.10;74.99;101528.81;8605100;34;20665;-72
2021/09/01 04:13:02;;;;;;;13.98;5.35;;;;;;;14.09;75.10;101524.38;8604922;34;20187;-72
2021/09/01 04:18:05;;;;;;;8.85;5.15;;;;;;;14.23;75.19;101528.69;8605069;34;20451;-72
2021/09/01 04:23:08;;;;;;;12.27;5.40;;;;;;;14.19;73.53;101529.94;8604946;34;20719;-71
2021/09/01 04:28:13;;;;;;;10.43;5.38;;;;;;;14.23;73.83;101532.25;8604306;34;21653;-72
2021/09/01 04:33:16;;;;;;;9.60;5.32;;;;;;;14.10;73.89;101528.81;8604536;34;20230;-72
2021/09/01 04:38:19;;;;;;;11.38;4.55;;;;;;;13.92;74.02;101537.34;8607209;34;20189;-72
2021/09/01 04:43:23;;;;;;;13.93;4.95;;;;;;;13.71;74.02;101539.88;8604709;34;20177;-72
2021/09/01 04:48:26;;;;;;;8.70;5.75;;;;;;;13.93;73.74;101543.59;8604009;34;20268;-72
2021/09/01 04:53:29;;;;;;;9.27;5.32;;;;;;;14.14;73.56;101541.09;8604046;34;20434;-71
2021/09/01 04:58:34;;;;;;;10.05;5.40;;;;;;;14.08;73.89;101538.88;8603534;34;20482;-71
2021/09/01 05:03:37;;;;;;;10.25;4.65;;;;;;;13.96;74.08;101545.22;8603437;34;20185;-71
2021/09/01 05:08:40;;;;;;;10.25;5.25;;;;;;;14.10;74.34;101550.44;8603329;34;20185;-72
2021/09/01 05:13:44;;;;;;;12.88;4.78;;;;;;;14.04;73.54;101550.88;8603733;34;20177;-72
2021/09/01 05:18:47;;;;;;;13.23;5.32;;;;;;;14.11;73.56;101558.41;8603075;34;20343;-72
2021/09/01 05:23:51;;;;;;;9.23;4.72;;;;;;;14.20;73.61;101559.53;8603023;34;20185;-71
2021/09/01 05:28:55;;;;;;;7.50;4.18;;;;;;;14.20;73.56;101564.94;8603159;34;20196;-71
2021/09/01 05:34:02;;;;;;;8.38;4.82;;;;;;;14.34;72.71;101555.75;8603008;34;20270;-72
2021/09/01 05:39:06;;;;;;;8.48;4.72;;;;;;;14.59;72.18;101560.97;8603200;34;20132;-72
2021/09/01 05:44:11;;;;;;;9.55;5.15;;;;;;;14.50;70.80;101559.00;8603052;34;20208;-73
2021/09/01 05:49:14;;;;;;;10.45;4.60;;;;;;;14.34;70.91;101563.84;8602811;34;20542;-72
2021/09/01 05:54:17;;;;;;;11.95;5.15;;;;;;;14.59;70.66;101562.84;8602215;34;20189;-72
2021/09/01 05:59:26;;;;;;;8.70;4.90;;;;;;;14.75;68.45;101563.31;8601587;34;20246;-71
2021/09/01 06:04:31;;;;;;;8.10;4.20;;;;;;;15.02;67.90;101570.19;8578505;34;20235;-72
2021/09/01 06:09:35;;;;;;;10.45;5.03;;;;;;;15.19;66.30;101580.50;8602969;34;20207;-72
2021/09/01 06:14:40;;;;;;;9.80;4.50;;;;;;;15.31;64.13;101591.31;8602652;34;20143;-72
2021/09/01 06:19:43;;;;;;;7.93;4.53;;;;;;;15.31;62.99;101585.91;8602310;34;20239;-72
2021/09/01 06:24:46;;;;;;;7.97;3.30;;;;;;;15.11;62.99;101590.22;8601879;34;20153;-72
2021/09/01 06:29:50;;;;;;;6.78;3.83;;;;;;;15.41;63.22;101595.00;8601747;34;20185;-72
2021/09/01 06:34:53;;;;;;;10.32;4.32;;;;;;;15.90;62.88;101597.16;8601074;34;20193;-72
2021/09/01 06:39:56;;;;;;;7.85;3.67;;;;;;;16.18;61.82;101602.09;8601724;34;20193;-72
2021/09/01 06:45:00;;;;;;;8.82;3.78;;;;;;;16.40;60.65;101602.00;8601396;34;20232;-72
2021/09/01 06:50:05;;;;;;;6.70;4.28;;;;;;;16.34;59.78;101610.66;8601235;34;20239;-72
2021/09/01 06:55:10;;;;;;;9.68;3.90;;;;;;;16.27;60.13;101601.34;8601308;34;20680;-72
2021/09/01 07:00:18;;;;;;;7.13;3.90;;;;;;;16.43;60.01;101598.16;8601682;34;20543;-72
2021/09/01 07:05:21;;;;;;;7.57;3.85;;;;;;;16.06;59.60;101601.28;8600663;34;20184;-72
2021/09/01 07:10:24;;;;;;;10.30;4.10;;;;;;;16.05;60.61;101605.00;8601369;34;20197;-72
2021/09/01 07:15:28;;;;;;;7.32;3.80;;;;;;;16.28;59.26;101612.03;8600409;34;20188;-73
2021/09/01 07:20:32;;;;;;;8.93;4.13;;;;;;;16.40;59.52;101610.16;8600701;34;20193;-71
2021/09/01 07:25:36;;;;;;;8.43;3.85;;;;;;;16.34;59.80;101616.09;8600149;34;20146;-73
2021/09/01 07:30:40;;;;;;;9.93;4.15;;;;;;;16.39;60.68;101623.84;8601877;34;20211;-72
2021/09/01 07:35:45;;;;;;;11.07;4.43;;;;;;;16.64;60.02;101617.13;8599869;34;20157;-73
2021/09/01 07:40:49;;;;;;;12.07;4.57;;;;;;;16.90;60.30;101626.56;8600877;34;20152;-72
2021/09/01 07:45:53;;;;;;;7.93;3.72;;;;;;;16.95;59.30;101637.88;8599655;34;20185;-72
2021/09/01 07:50:57;;;;;;;11.32;4.40;;;;;;;17.09;60.22;101644.78;8600189;34;20248;-72
2021/09/01 07:56:00;;;;;;;8.60;4.18;;;;;;;17.35;58.84;101645.19;8599211;34;20184;-72
2021/09/01 08:01:04;;;;;;;9.95;4.22;;;;;;;17.39;57.81;101654.78;8600084;34;20199;-72
2021/09/01 08:06:08;;;;;;;9.07;4.40;;;;;;;17.15;57.99;101654.28;8599917;34;20149;-72
2021/09/01 08:11:11;;;;;;;7.07;3.55;;;;;;;17.28;57.04;101654.00;8601477;34;20756;-70
2021/09/01 08:16:16;;;;;;;8.93;3.95;;;;;;;17.42;56.05;101668.09;8603505;34;20300;-72
2021/09/01 08:21:19;;;;;;;5.93;4.35;;;;;;;17.43;53.83;101663.50;8605366;34;20590;-72
2021/09/01 08:26:22;;;;;;;8.23;4.40;;;;;;;17.43;54.86;101666.22;8603007;34;20235;-72
2021/09/01 08:31:26;;;;;;;10.30;4.05;;;;;;;16.94;55.55;101670.56;8602597;34;20177;-72
2021/09/01 08:36:29;;;;;;;8.05;4.13;;;;;;;17.54;55.04;101665.25;8602340;34;20154;-72
2021/09/01 08:41:33;;;;;;;9.98;4.00;;;;;;;17.80;53.85;101681.88;8578302;34;20189;-72
2021/09/01 08:46:38;;;;;;;8.57;4.30;;;;;;;17.37;54.42;101673.06;8603080;34;20864;-70
2021/09/01 08:51:41;;;;;;;8.32;4.50;;;;;;;17.84;52.86;101686.06;8604786;34;20284;-72
2021/09/01 08:56:45;;;;;;;8.80;3.92;;;;;;;17.69;52.88;101682.91;8609569;34;21057;-72
2021/09/01 09:01:53;;;;;;;8.27;3.90;;;;;;;17.76;52.76;101685.91;8605035;34;20211;-73
2021/09/01 09:06:59;;;;;;;8.85;4.03;;;;;;;17.91;51.47;101684.50;8604055;34;20189;-72
2021/09/01 09:12:05;;;;;;;10.40;4.22;;;;;;;18.36;52.75;101686.69;8604497;34;20219;-72
2021/09/01 09:17:13;;;;;;;9.18;4.50;;;;;;;18.45;49.92;101690.41;8603254;34;21150;-73
2021/09/01 09:22:22;;;;;;;8.45;4.13;;;;;;;18.51;49.55;101687.97;8603560;34;21046;-72
2021/09/01 09:27:37;;;;;;;9.70;4.18;;;;;;;19.20;50.62;101688.69;8602780;34;20535;-72
2021/09/01 09:32:54;;;;;;;10.43;4.00;;;;;;;19.63;48.94;101688.06;8603426;34;20156;-72
2021/09/01 09:38:03;;;;;;;7.32;3.92;;;;;;;19.93;46.83;101683.28;8578193;34;20374;-73
2021/09/01 09:43:15;;;;;;;8.90;4.50;;;;;;;20.56;47.53;101676.91;8600289;34;21098;-72
2021/09/01 09:48:30;;;;;;;10.32;3.90;;;;;;;20.76;47.03;101681.16;8594811;34;20322;-72
2021/09/01 09:53:37;;;;;;;6.30;3.80;;;;;;;20.60;47.58;101677.41;8593297;34;20189;-73
2021/09/01 09:58:42;;;;;;;6.57;3.50;;;;;;;18.80;49.68;101690.66;8593802;34;20219;-72
2021/09/01 10:03:48;;;;;;;7.65;4.10;;;;;;;18.96;50.98;101683.75;8595986;34;20181;-72
2021/09/01 10:08:53;;;;;;;9.32;4.68;;;;;;;19.27;49.42;101678.06;8600261;34;20239;-73
2021/09/01 10:13:56;;;;;;;8.75;4.53;;;;;;;19.87;49.44;101675.72;8600435;34;20202;-73
2021/09/01 10:19:13;;;;;;;10.05;4.22;;;;;;;19.78;48.68;101674.78;8576775;34;20816;-73
2021/09/01 10:24:22;;;;;;;11.45;4.88;;;;;;;20.39;49.00;101677.78;8599938;34;20222;-73
2021/09/01 10:29:48;;;;;;;9.02;4.00;;;;;;;20.81;46.73;101669.72;8600042;34;20193;-73
2021/09/01 10:35:30;;;;;;;7.97;4.40;;;;;;;19.68;48.02;101672.09;8600604;34;20670;-73
2021/09/01 10:41:07;;;;;;;7.53;4.50;;;;;;;20.76;47.76;101664.78;8601678;34;20145;-72
2021/09/01 10:46:10;;;;;;;10.13;4.18;;;;;;;21.45;45.84;101673.88;8466695;34;20193;-72
2021/09/01 10:51:27;;;;;;;5.13;3.90;;;;;;;21.37;45.58;101671.09;8599261;34;20189;-72
2021/09/01 10:56:30;;;;;;;7.85;4.00;;;;;;;21.06;46.47;101669.91;8597216;34;20323;-72
2021/09/01 11:01:33;;;;;;;10.45;4.20;;;;;;;20.21;48.12;101667.69;8600911;34;20152;-72
2021/09/01 11:06:39;;;;;;;7.53;3.85;;;;;;;20.75;47.67;101662.19;8588425;34;20604;-73
2021/09/01 11:11:52;;;;;;;7.40;3.92;;;;;;;20.92;45.41;101671.34;8545168;34;20185;-72
2021/09/01 11:16:55;;;;;;;7.78;4.15;;;;;;;19.89;47.65;101668.25;8544162;34;20800;-72
2021/09/01 11:22:06;;;;;;;9.07;4.47;;;;;;;20.04;47.16;101665.84;8544968;34;20872;-72
2021/09/01 11:27:12;;;;;;;8.52;4.25;;;;;;;20.73;46.94;101661.47;8543986;34;20256;-72
2021/09/01 11:32:17;;;;;;;10.68;4.55;;;;;;;20.40;47.68;101654.94;8543967;34;20656;-72
2021/09/01 11:37:21;;;;;;;8.77;4.63;;;;;;;20.41;48.92;101659.41;8543295;34;20613;-72
2021/09/01 11:42:24;;;;;;;10.35;4.60;;;;;;;20.76;49.03;101661.16;8543588;34;20185;-72
2021/09/01 11:47:43;;;;;;;10.20;5.00;;;;;;;21.54;46.06;101650.16;8543640;34;20477;-72
2021/09/01 11:52:54;;;;;;;10.70;4.82;;;;;;;21.31;45.18;101651.75;8548412;34;20185;-72
2021/09/01 11:58:14;;;;;;;8.55;5.05;;;;;;;21.79;44.94;101659.28;8547039;34;20185;-72
2021/09/01 12:03:17;;;;;;;9.75;4.75;;;;;;;22.53;42.81;101652.00;8548935;34;20526;-72
2021/09/01 12:08:22;;;;;;;8.50;5.00;;;;;;;21.62;43.17;101655.63;8547628;34;20197;-73
2021/09/01 12:13:40;;;;;;;9.50;4.53;;;;;;;21.09;46.54;101656.81;8547298;34;20439;-72
2021/09/01 12:18:51;;;;;;;7.50;4.53;;;;;;;21.25;46.01;101647.81;8546447;34;20189;-72
2021/09/01 12:24:12;;;;;;;14.57;6.10;;;;;;;19.98;47.88;101653.69;8546309;34;21344;-72
2021/09/01 12:29:43;;;;;;;10.98;5.40;;;;;;;20.05;47.15;101643.03;8546120;34;20197;-72
2021/09/01 12:34:52;;;;;;;7.90;4.43;;;;;;;21.98;44.38;101630.78;8505540;34;20196;-72
2021/09/01 12:39:59;;;;;;;9.27;4.55;;;;;;;20.84;46.25;101641.25;8547847;34;20247;-72
2021/09/01 12:45:07;;;;;;;8.00;4.85;;;;;;;21.27;44.17;101632.09;8547138;34;20185;-72
2021/09/01 12:50:10;;;;;;;12.15;5.22;;;;;;;22.92;41.39;101623.00;8547214;34;20187;-71
2021/09/01 12:55:14;;;;;;;8.77;5.00;;;;;;;24.51;39.00;101625.31;8545163;34;20210;-72
2021/09/01 13:00:17;;;;;;;11.75;5.13;;;;;;;24.09;40.02;101624.81;8547190;34;20358;-72
2021/09/01 13:05:21;;;;;;;10.38;5.13;;;;;;;27.14;36.85;101615.69;8547228;34;20611;-72
2021/09/01 13:10:25;;;;;;;7.55;4.10;;;;;;;28.73;32.39;101606.00;8548208;34;21232;-72
2021/09/01 13:15:29;;;;;;;8.82;4.65;;;;;;;26.90;34.01;101599.66;8548205;34;20197;-71
2021/09/01 13:20:33;;;;;;;8.27;4.47;;;;;;;29.11;32.22;101597.00;8546765;34;20667;-71
2021/09/01 13:25:37;;;;;;;7.80;4.80;;;;;;;28.22;32.26;101595.59;8547001;34;20263;-71
2021/09/01 13:30:40;;;;;;;7.15;4.20;;;;;;;27.27;34.51;101597.50;8523048;34;20261;-72
2021/09/01 13:35:44;;;;;;;7.72;3.92;;;;;;;26.61;34.47;101592.47;8546312;34;20190;-72
2021/09/01 13:40:48;;;;;;;6.63;4.30;;;;;;;25.72;37.17;101595.69;8546442;34;20186;-71
2021/09/01 13:45:51;;;;;;;8.20;4.53;;;;;;;27.49;35.18;101585.31;8546158;34;20252;-72
2021/09/01 13:50:54;;;;;;;7.43;4.80;;;;;;;28.07;34.45;101578.41;8522388;34;20952;-72
2021/09/01 13:56:00;;;;;;;8.02;4.75;;;;;;;25.30;37.74;101586.31;8545576;34;20542;-72
2021/09/01 14:01:03;;;;;;;8.55;4.63;;;;;;;26.19;37.58;101580.44;8546073;34;20193;-72
2021/09/01 14:06:07;;;;;;;9.98;4.38;;;;;;;27.14;35.48;101582.59;8546265;34;20171;-72
2021/09/01 14:11:12;;;;;;;7.55;5.00;;;;;;;26.19;36.24;101573.06;8545727;34;20197;-72
2021/09/01 14:16:16;;;;;;;7.00;4.68;;;;;;;26.02;37.52;101572.47;8545139;34;20285;-72
2021/09/01 14:21:20;;;;;;;7.80;4.65;;;;;;;27.00;34.78;101567.06;8545789;34;20221;-72
2021/09/01 14:26:25;;;;;;;11.23;5.20;;;;;;;26.01;36.73;101554.28;8545669;34;20205;-72
2021/09/01 14:31:28;;;;;;;6.18;4.35;;;;;;;27.02;35.02;101561.34;8545402;34;20159;-72
2021/09/01 14:36:31;;;;;;;11.43;5.15;;;;;;;25.89;36.07;101564.13;8544542;34;20186;-72
2021/09/01 14:41:35;;;;;;;7.28;4.20;;;;;;;26.91;35.61;101557.28;8544723;34;20193;-72
2021/09/01 14:46:38;;;;;;;9.63;4.43;;;;;;;26.43;35.77;101565.41;8545097;34;20135;-71
2021/09/01 14:51:41;;;;;;;8.43;4.80;;;;;;;25.63;36.88;101556.41;8545141;34;20158;-72
2021/09/01 14:56:46;;;;;;;9.55;4.57;;;;;;;25.67;36.90;101552.28;8544209;34;20664;-71
2021/09/01 15:01:49;;;;;;;8.30;4.55;;;;;;;24.72;37.32;101555.91;8544626;34;20244;-73
2021/09/01 15:06:52;;;;;;;8.82;4.63;;;;;;;24.82;37.09;101553.75;8544020;34;20236;-73
2021/09/01 15:11:56;;;;;;;10.98;4.05;;;;;;;24.46;38.12;101548.97;8544182;34;21536;-72
2021/09/01 15:16:59;;;;;;;6.65;4.18;;;;;;;25.15;36.17;101548.72;8543708;34;20697;-73
2021/09/01 15:22:03;;;;;;;10.25;4.40;;;;;;;24.86;37.91;101549.56;8543488;34;20411;-73
2021/09/01 15:27:08;;;;;;;7.35;4.40;;;;;;;25.69;35.52;101541.06;8544136;34;20289;-73
2021/09/01 15:32:11;;;;;;;7.28;4.20;;;;;;;25.82;36.85;101528.28;8544483;34;20190;-72
2021/09/01 15:37:16;;;;;;;6.32;4.25;;;;;;;26.38;35.99;101526.59;8543316;34;20186;-72
2021/09/01 15:42:21;;;;;;;10.68;5.25;;;;;;;26.68;35.80;101528.06;8543579;34;20182;-72
2021/09/01 15:47:27;;;;;;;10.90;5.03;;;;;;;26.62;36.17;101522.53;8543603;34;20185;-72
2021/09/01 15:52:32;;;;;;;7.45;4.95;;;;;;;24.79;38.06;101523.03;8543527;34;20454;-72
2021/09/01 15:57:38;;;;;;;9.02;4.88;;;;;;;23.42;40.07;101517.59;8543152;34;20131;-72
2021/09/01 16:02:44;;;;;;;6.55;4.78;;;;;;;23.57;39.90;101520.44;8543817;34;20268;-72
2021/09/01 16:07:58;;;;;;;9.07;5.07;;;;;;;23.63;40.38;101514.19;8543437;34;20256;-72
2021/09/01 16:13:05;;;;;;;8.23;5.13;;;;;;;23.94;40.74;101516.03;8543091;34;20673;-72
2021/09/01 16:18:16;;;;;;;9.30;4.30;;;;;;;24.59;40.04;101520.88;8542701;34;20155;-72
2021/09/01 16:23:19;;;;;;;7.32;4.57;;;;;;;23.59;40.88;101521.94;8542889;34;20190;-73
2021/09/01 16:28:26;;;;;;;9.75;4.53;;;;;;;22.72;41.59;101515.75;8519018;34;20218;-74
2021/09/01 16:33:30;;;;;;;6.22;4.07;;;;;;;21.98;44.09;101515.03;8543300;34;20248;-73
2021/09/01 16:38:38;;;;;;;7.78;4.53;;;;;;;22.43;43.23;101514.44;8547142;34;20687;-73
2021/09/01 16:43:43;;;;;;;8.88;4.93;;;;;;;22.70;42.63;101510.44;8547500;34;20240;-73
2021/09/01 16:48:46;;;;;;;10.70;4.97;;;;;;;22.85;43.05;101510.56;8546901;34;20186;-72
2021/09/01 16:53:53;;;;;;;9.65;5.05;;;;;;;22.46;42.60;101515.97;8547509;34;20281;-73
2021/09/01 16:59:04;;;;;;;7.15;4.88;;;;;;;22.20;43.83;101508.84;8546413;34;20252;-72
2021/09/01 17:04:08;;;;;;;7.80;4.85;;;;;;;22.13;44.49;101510.53;8547206;34;20197;-72
2021/09/01 17:09:11;;;;;;;8.45;5.13;;;;;;;21.52;45.65;101517.38;8547095;34;20182;-73
2021/09/01 17:14:16;;;;;;;11.10;4.70;;;;;;;21.43;45.97;101519.25;8547542;34;20188;-72
2021/09/01 17:19:20;;;;;;;7.70;4.07;;;;;;;21.22;46.91;101520.56;8547070;34;20756;-73
2021/09/01 17:24:23;;;;;;;8.00;4.75;;;;;;;21.05;48.23;101528.91;8558568;34;21279;-72
2021/09/01 17:29:41;;;;;;;8.05;4.65;;;;;;;20.64;48.97;101525.97;8601824;34;20138;-73
2021/09/01 17:34:47;;;;;;;8.25;4.55;;;;;;;20.28;50.75;101526.91;8604119;34;20188;-72
2021/09/01 17:39:55;;;;;;;10.48;4.60;;;;;;;19.73;52.23;101527.19;8604410;34;20197;-74
2021/09/01 17:45:01;;;;;;;10.18;4.65;;;;;;;19.08;54.59;101527.34;8603414;34;20586;-72
2021/09/01 17:50:06;;;;;;;7.32;4.97;;;;;;;18.61;55.39;101537.44;8603616;34;20649;-72
2021/09/01 17:55:10;;;;;;;10.23;4.80;;;;;;;18.28;56.68;101540.53;8603546;34;20414;-71
2021/09/01 18:00:16;;;;;;;6.85;4.45;;;;;;;18.19;57.37;101543.28;8603459;34;20243;-73
2021/09/01 18:05:19;;;;;;;6.55;4.00;;;;;;;17.70;58.58;101543.31;8601380;34;20441;-72
2021/09/01 18:10:22;;;;;;;8.55;5.28;;;;;;;17.54;59.65;101548.44;8603219;34;20156;-73
2021/09/01 18:15:27;;;;;;;13.38;6.22;;;;;;;17.43;59.99;101553.00;8603116;34;20231;-72
2021/09/01 18:20:30;;;;;;;7.43;4.70;;;;;;;17.18;59.84;101553.53;8603627;34;20185;-72
2021/09/01 18:25:33;;;;;;;9.18;4.93;;;;;;;17.00;60.37;101569.56;8601821;34;20211;-72
2021/09/01 18:30:37;;;;;;;11.15;4.85;;;;;;;16.75;60.59;101568.19;8601818;34;20251;-71
2021/09/01 18:35:41;;;;;;;9.48;4.90;;;;;;;16.51;61.30;101572.09;8601303;34;20145;-71
2021/09/01 18:40:44;;;;;;;10.45;5.10;;;;;;;16.49;62.06;101582.22;8601989;34;21103;-71
2021/09/01 18:45:48;;;;;;;8.75;5.20;;;;;;;16.23;61.81;101576.31;8595411;34;20434;-71
2021/09/01 18:50:53;;;;;;;10.73;5.95;;;;;;;15.91;62.55;101585.34;8599686;34;20207;-71
2021/09/01 18:55:56;;;;;;;8.27;5.38;;;;;;;15.82;62.99;101586.13;8601162;34;20189;-72
2021/09/01 19:01:05;;;;;;;10.05;5.60;;;;;;;15.65;63.77;101592.97;8588899;34;20889;-71
2021/09/01 19:06:15;;;;;;;8.50;5.80;;;;;;;15.45;64.36;101596.47;8588969;34;20264;-70
2021/09/01 19:11:21;;;;;;;11.60;6.43;;;;;;;15.38;64.82;101600.66;8600889;34;20193;-70
2021/09/01 19:16:27;;;;;;;11.95;6.88;;;;;;;15.41;65.03;101600.41;8600661;34;20240;-70
2021/09/01 19:21:30;;;;;;;13.20;6.80;;;;;;;15.37;65.33;101609.78;8600112;34;20208;-72
2021/09/01 19:26:33;;;;;;;11.30;6.88;;;;;;;15.31;65.49;101608.41;8598405;34;20367;-71
2021/09/01 19:31:38;;;;;;;13.32;7.15;;;;;;;15.22;65.87;101603.72;8592918;34;20181;-71
2021/09/01 19:36:43;;;;;;;9.30;6.28;;;;;;;15.12;66.23;101608.19;8599879;34;20200;-72
2021/09/01 19:41:46;;;;;;;13.30;7.32;;;;;;;14.90;66.95;101599.09;8599097;34;20168;-71
2021/09/01 19:46:51;;;;;;;16.55;7.47;;;;;;;14.76;67.94;101605.63;8572691;34;20146;-71
2021/09/01 19:51:54;;;;;;;12.27;7.18;;;;;;;14.49;68.75;101603.25;8597316;34;20185;-71
2021/09/01 19:56:58;;;;;;;13.07;7.45;;;;;;;14.31;69.56;101600.09;8599850;34;20161;-70
2021/09/01 20:02:04;;;;;;;11.93;7.05;;;;;;;14.07;70.33;101604.69;8599570;34;20224;-70
2021/09/01 20:07:10;;;;;;;10.50;7.30;;;;;;;14.10;70.44;101609.88;8596536;34;20268;-70
2021/09/01 20:12:14;;;;;;;13.82;7.43;;;;;;;14.11;70.49;101603.47;8601643;34;20146;-71
2021/09/01 20:17:18;;;;;;;11.75;7.55;;;;;;;14.01;71.03;101605.16;8596879;34;21869;-72
2021/09/01 20:22:22;;;;;;;13.98;7.97;;;;;;;14.00;70.77;101598.03;8601768;34;20461;-71
2021/09/01 20:27:26;;;;;;;14.27;8.43;;;;;;;13.97;70.96;101596.44;8602255;34;20193;-71
2021/09/01 20:32:30;;;;;;;14.98;8.85;;;;;;;14.01;70.70;101608.72;8602986;34;20771;-71
2021/09/01 20:37:33;;;;;;;14.27;8.32;;;;;;;14.16;70.42;101604.84;8602578;34;20129;-71
2021/09/01 20:42:43;;;;;;;14.68;8.85;;;;;;;14.33;69.37;101608.94;8601747;34;20157;-71
2021/09/01 20:47:53;;;;;;;12.25;7.90;;;;;;;14.37;68.92;101615.84;8602863;34;20247;-72
2021/09/01 20:53:00;;;;;;;14.77;7.68;;;;;;;14.36;69.11;101611.41;8599929;34;20195;-72
2021/09/01 20:58:04;;;;;;;14.82;7.53;;;;;;;14.28;69.05;101611.13;8601250;34;20926;-72
2021/09/01 21:03:09;;;;;;;15.10;8.48;;;;;;;14.29;68.96;101612.88;8601639;34;20154;-72
2021/09/01 21:08:14;;;;;;;10.95;7.70;;;;;;;14.25;69.44;101607.81;8603510;34;20181;-71
2021/09/01 21:13:18;;;;;;;10.07;7.05;;;;;;;14.12;69.52;101608.78;8603604;34;20195;-72
2021/09/01 21:18:23;;;;;;;13.95;7.72;;;;;;;13.98;70.03;101608.94;8603158;34;20255;-72
2021/09/01 21:23:30;;;;;;;15.23;7.75;;;;;;;13.98;69.86;101605.41;8603234;34;20620;-72
2021/09/01 21:28:35;;;;;;;10.77;7.28;;;;;;;13.93;69.81;101612.03;8603601;34;20189;-72
2021/09/01 21:33:42;;;;;;;10.73;7.70;;;;;;;13.86;70.08;101601.78;8604563;34;20181;-72
2021/09/01 21:38:45;;;;;;;13.30;7.00;;;;;;;13.88;70.13;101605.25;8604741;34;20145;-72
2021/09/01 21:43:50;;;;;;;14.88;7.30;;;;;;;13.79;70.25;101608.63;8604318;34;20169;-72
2021/09/01 21:48:54;;;;;;;15.82;7.80;;;;;;;13.72;70.37;101616.34;8603073;34;20459;-72
2021/09/01 21:53:57;;;;;;;14.27;7.03;;;;;;;13.86;70.59;101615.31;8602648;34;20204;-72
2021/09/01 21:59:04;;;;;;;13.15;8.07;;;;;;;13.77;70.09;101624.06;8602393;34;20200;-72
2021/09/01 22:04:09;;;;;;;13.93;8.52;;;;;;;13.58;70.31;101617.38;8601932;34;20733;-72
2021/09/01 22:09:13;;;;;;;18.48;9.80;;;;;;;13.55;70.63;101617.59;8602075;34;20191;-72
2021/09/01 22:14:16;;;;;;;17.05;9.63;;;;;;;13.48;71.08;101617.19;8601779;34;20189;-71
2021/09/01 22:19:20;;;;;;;14.27;9.20;;;;;;;13.54;70.82;101623.09;8602153;34;20284;-71
2021/09/01 22:24:24;;;;;;;14.90;8.82;;;;;;;13.52;70.63;101619.66;8601403;34;20467;-71
2021/09/01 22:29:27;;;;;;;16.98;8.98;;;;;;;13.42;70.76;101627.56;8601427;34;20236;-70
2021/09/01 22:34:31;;;;;;;16.73;8.43;;;;;;;13.34;71.26;101629.94;8600101;34;20193;-70
2021/09/01 22:39:34;;;;;;;13.93;8.02;;;;;;;13.14;71.85;101626.00;8601044;34;20866;-71
2021/09/01 22:44:37;;;;;;;21.65;9.82;;;;;;;13.15;71.92;101630.41;8600544;34;20185;-72
2021/09/01 22:49:44;;;;;;;15.88;8.77;;;;;;;13.07;71.88;101619.31;8601203;34;20178;-71
2021/09/01 22:54:47;;;;;;;19.45;9.88;;;;;;;13.04;71.78;101626.66;8600094;34;21084;-71
2021/09/01 22:59:50;;;;;;;14.30;8.75;;;;;;;13.03;72.04;101627.63;8601306;34;20244;-72
2021/09/01 23:04:54;;;;;;;17.58;9.25;;;;;;;13.01;71.91;101632.28;8600339;34;20256;-71
2021/09/01 23:09:57;;;;;;;18.33;9.45;;;;;;;12.95;71.97;101613.84;8600863;34;20244;-71
2021/09/01 23:15:00;;;;;;;16.20;9.40;;;;;;;12.93;72.04;101623.88;8600252;34;20888;-71
2021/09/01 23:20:07;;;;;;;18.85;11.52;;;;;;;13.03;72.24;101624.94;8600192;34;20185;-71
2021/09/01 23:25:11;;;;;;;21.90;11.48;;;;;;;12.97;72.06;101620.00;8600368;34;20235;-72
2021/09/01 23:30:14;;;;;;;18.77;10.68;;;;;;;12.92;72.39;101630.25;8600031;34;20300;-71
2021/09/01 23:35:19;;;;;;;18.70;10.95;;;;;;;13.00;72.04;101619.75;8599772;34;20169;-71